Time;durP1;ratioP1;P1;durP2;ratioP2;P2;SDS_P1;SDS_P2;PMS_P1;PMS_P2;Temp;Humidity;BMP_temperature;BMP_pressure;BME280_temperature;BME280_humidity;BME280_pressure;Samples;Min_cycle;Max_cycle;Signal;HPM_P1;HPM_P2
2021/11/03 00:02:10;;;;;;;2.20;2.00;;;;;;;7.19;98.20;99533.28;5010289;28;20063;-85
2021/11/03 00:04:39;;;;;;;2.33;2.13;;;;;;;7.14;98.53;99525.50;5010622;28;20038;-85
2021/11/03 00:07:06;;;;;;;2.22;1.80;;;;;;;7.12;99.14;99524.69;5022957;28;20052;-84
2021/11/03 00:09:33;;;;;;;3.50;1.92;;;;;;;7.12;99.43;99522.94;5007486;28;20045;-85
2021/11/03 00:12:00;;;;;;;3.42;2.13;;;;;;;7.15;99.22;99523.78;5009212;28;20460;-85
2021/11/03 00:14:27;;;;;;;4.15;2.22;;;;;;;7.18;99.29;99522.00;5026815;28;20078;-84
2021/11/03 00:16:53;;;;;;;3.28;2.53;;;;;;;7.18;99.41;99522.00;5004730;28;20045;-85
2021/11/03 00:19:20;;;;;;;2.50;1.90;;;;;;;7.16;98.95;99515.09;5014052;28;20054;-85
2021/11/03 00:21:46;;;;;;;3.20;2.65;;;;;;;7.11;99.38;99521.22;5010706;28;20041;-85
2021/11/03 00:24:13;;;;;;;1.63;1.52;;;;;;;7.10;99.22;99521.25;5026868;28;20518;-85
2021/11/03 00:26:39;;;;;;;3.28;2.25;;;;;;;7.07;99.67;99511.72;5024506;28;20508;-84
2021/11/03 00:29:06;;;;;;;2.78;2.42;;;;;;;7.03;99.50;99517.84;5026094;28;20120;-85
2021/11/03 00:31:32;;;;;;;3.72;2.88;;;;;;;6.97;100.00;99509.28;5027121;28;20103;-85
2021/11/03 00:33:59;;;;;;;2.53;2.33;;;;;;;6.96;100.00;99521.41;5025565;28;20057;-85
2021/11/03 00:36:26;;;;;;;3.35;2.10;;;;;;;6.97;100.00;99520.53;5027971;28;20069;-85
2021/11/03 00:38:52;;;;;;;2.50;2.05;;;;;;;6.99;100.00;99528.31;5024938;28;20064;-85
2021/11/03 00:41:19;;;;;;;3.65;2.20;;;;;;;6.99;99.82;99524.00;5040941;28;20106;-85
2021/11/03 00:43:45;;;;;;;3.72;2.85;;;;;;;6.94;99.96;99520.59;5025613;28;20392;-84
2021/11/03 00:46:12;;;;;;;4.32;2.40;;;;;;;6.89;99.87;99522.38;5027483;28;20049;-84
2021/11/03 00:48:38;;;;;;;3.45;3.15;;;;;;;6.81;100.00;99522.47;5026670;28;20041;-85
2021/11/03 00:51:07;;;;;;;2.92;2.63;;;;;;;6.70;100.00;99524.31;5023682;28;20186;-85
2021/11/03 00:53:34;;;;;;;4.03;2.88;;;;;;;6.62;100.00;99524.41;5038432;28;20578;-85
2021/11/03 00:56:01;;;;;;;8.02;3.47;;;;;;;6.55;100.00;99527.97;5038757;28;20118;-85
2021/11/03 00:58:27;;;;;;;4.03;2.95;;;;;;;6.44;100.00;99534.13;5024295;28;20382;-85
2021/11/03 01:00:54;;;;;;;5.45;3.45;;;;;;;6.36;100.00;99527.28;5015518;28;20045;-85
2021/11/03 01:03:20;;;;;;;4.45;3.42;;;;;;;6.26;100.00;99532.56;5040270;28;20164;-85
2021/11/03 01:05:47;;;;;;;3.78;3.20;;;;;;;6.20;100.00;99536.97;5009544;28;20052;-84
2021/11/03 01:08:14;;;;;;;6.07;3.90;;;;;;;6.15;100.00;99534.41;5024278;28;20060;-86
2021/11/03 01:10:47;;;;;;;4.03;3.45;;;;;;;6.11;100.00;99528.38;5021322;28;20053;-85
2021/11/03 01:13:16;;;;;;;3.58;3.25;;;;;;;6.08;100.00;99537.94;5023020;28;20515;-85
2021/11/03 01:15:43;;;;;;;7.43;3.42;;;;;;;5.98;100.00;99524.16;5007623;28;20042;-84
2021/11/03 01:18:10;;;;;;;4.55;3.25;;;;;;;5.90;100.00;99518.97;5041429;28;20046;-85
2021/11/03 01:20:37;;;;;;;5.53;3.50;;;;;;;5.80;100.00;99517.34;5025528;28;20050;-85
2021/11/03 01:23:06;;;;;;;6.20;4.07;;;;;;;5.72;100.00;99511.34;5007865;28;20130;-85
2021/11/03 01:25:33;;;;;;;4.05;3.65;;;;;;;5.63;100.00;99515.75;5009865;28;20045;-85
2021/11/03 01:28:00;;;;;;;5.35;3.65;;;;;;;5.58;100.00;99514.91;5007548;28;20053;-85
2021/11/03 01:30:26;;;;;;;6.45;3.38;;;;;;;5.52;100.00;99511.50;5021330;28;20042;-85
2021/11/03 01:32:55;;;;;;;3.83;3.30;;;;;;;5.45;100.00;99510.69;5023250;28;20124;-85
2021/11/03 01:35:23;;;;;;;4.03;3.50;;;;;;;5.37;100.00;99517.63;5008229;28;20140;-85
2021/11/03 01:37:50;;;;;;;3.55;3.25;;;;;;;5.30;100.00;99509.88;5012884;28;20081;-85
2021/11/03 01:40:25;;;;;;;4.13;3.72;;;;;;;5.28;100.00;99518.56;5024289;28;20100;-85
2021/11/03 01:42:52;;;;;;;8.40;4.00;;;;;;;5.25;100.00;99511.66;5016450;28;20049;-84
2021/11/03 01:45:23;;;;;;;5.43;3.72;;;;;;;5.24;100.00;99509.06;5006526;28;20095;-85
2021/11/03 01:48:00;;;;;;;6.20;4.03;;;;;;;5.22;100.00;99508.22;5030100;28;20049;-85
2021/11/03 01:50:42;;;;;;;5.45;4.18;;;;;;;5.19;100.00;99509.09;5021330;28;20051;-85
2021/11/03 01:53:26;;;;;;;4.32;3.83;;;;;;;5.18;100.00;99512.56;5037468;28;20053;-85
2021/11/03 01:56:19;;;;;;;7.40;5.05;;;;;;;5.15;100.00;99504.81;5017681;28;20046;-85
2021/11/03 01:58:55;;;;;;;6.10;4.32;;;;;;;5.11;100.00;99508.25;5005261;28;20132;-85
2021/11/03 02:01:22;;;;;;;6.32;5.10;;;;;;;5.12;100.00;99507.38;5032714;28;20041;-85
2021/11/03 02:03:50;;;;;;;6.43;4.82;;;;;;;5.12;100.00;99515.19;5022663;28;20045;-85
2021/11/03 02:06:22;;;;;;;8.18;5.63;;;;;;;5.10;100.00;99510.00;5031540;28;20386;-85
2021/11/03 02:08:51;;;;;;;7.82;5.50;;;;;;;5.07;100.00;99507.44;5006047;28;20048;-85
2021/11/03 02:11:21;;;;;;;5.57;5.03;;;;;;;5.01;100.00;99507.47;5022339;28;20080;-84
2021/11/03 02:13:48;;;;;;;6.65;5.18;;;;;;;4.98;100.00;99510.06;5025736;28;20055;-85
2021/11/03 02:16:18;;;;;;;9.20;6.55;;;;;;;5.00;100.00;99517.84;5020053;28;20045;-84
2021/11/03 02:18:46;;;;;;;8.15;6.47;;;;;;;5.00;100.00;99504.88;5026809;28;20778;-84
2021/11/03 02:21:20;;;;;;;12.00;7.60;;;;;;;5.06;100.00;99512.59;5024440;28;20054;-85
2021/11/03 02:24:06;;;;;;;10.05;6.38;;;;;;;5.05;100.00;99506.56;5019550;28;20049;-85
2021/11/03 02:26:42;;;;;;;12.88;6.28;;;;;;;5.05;100.00;99501.38;5020327;28;20057;-84
2021/11/03 02:29:12;;;;;;;12.38;8.00;;;;;;;5.09;100.00;99499.63;5030923;28;20049;-84
2021/11/03 02:31:47;;;;;;;11.55;7.20;;;;;;;5.03;100.00;99495.34;5022236;28;20404;-85
2021/11/03 02:34:28;;;;;;;12.48;7.53;;;;;;;4.96;100.00;99493.66;5020868;28;20050;-85
2021/11/03 02:37:30;;;;;;;9.25;6.55;;;;;;;4.89;100.00;99503.19;5021819;28;20041;-84
2021/11/03 02:40:14;;;;;;;10.07;6.50;;;;;;;4.84;100.00;99509.25;5020230;28;20045;-84
2021/11/03 02:42:46;;;;;;;9.68;7.05;;;;;;;4.78;100.00;99503.25;5030322;28;20065;-85
2021/11/03 02:45:23;;;;;;;10.88;7.60;;;;;;;4.78;100.00;99510.13;5012444;28;20041;-84
2021/11/03 02:47:50;;;;;;;12.27;7.40;;;;;;;4.72;100.00;99504.97;5015122;28;20057;-84
2021/11/03 02:50:17;;;;;;;8.07;5.95;;;;;;;4.68;100.00;99509.31;5026577;28;20458;-84
2021/11/03 02:52:44;;;;;;;11.07;6.88;;;;;;;4.64;100.00;99510.19;5011310;28;20045;-83
2021/11/03 02:55:13;;;;;;;10.32;7.82;;;;;;;4.60;100.00;99509.34;5010950;28;20042;-84
2021/11/03 02:57:40;;;;;;;11.15;7.03;;;;;;;4.56;100.00;99509.34;5011972;28;20107;-85
2021/11/03 03:00:17;;;;;;;9.25;7.10;;;;;;;4.52;100.00;99497.28;5043920;28;20045;-85
2021/11/03 03:02:47;;;;;;;9.27;6.78;;;;;;;4.46;100.00;99504.19;5029513;28;20077;-85
2021/11/03 03:05:14;;;;;;;12.52;7.50;;;;;;;4.46;100.00;99511.97;5029364;28;20112;-85
2021/11/03 03:07:40;;;;;;;12.40;7.75;;;;;;;4.46;100.00;99511.13;5022764;28;20060;-85
2021/11/03 03:10:08;;;;;;;13.68;7.35;;;;;;;4.46;100.00;99509.38;5043375;28;20764;-85
2021/11/03 03:12:35;;;;;;;13.85;9.50;;;;;;;4.48;100.00;99514.56;5014920;28;20136;-85
2021/11/03 03:15:02;;;;;;;14.55;8.07;;;;;;;4.45;100.00;99520.59;5024619;28;20050;-85
2021/11/03 03:17:28;;;;;;;11.45;8.13;;;;;;;4.44;100.00;99518.03;5028571;28;20179;-85
2021/11/03 03:19:55;;;;;;;16.15;9.25;;;;;;;4.44;100.00;99528.38;5024487;28;21589;-85
2021/11/03 03:22:22;;;;;;;13.85;8.60;;;;;;;4.43;100.00;99531.84;5031784;28;20037;-85
2021/11/03 03:24:49;;;;;;;14.20;8.15;;;;;;;4.40;100.00;99535.28;5011386;28;20045;-84
2021/11/03 03:27:16;;;;;;;13.18;8.35;;;;;;;4.37;100.00;99534.44;5009885;28;20136;-84
2021/11/03 03:29:42;;;;;;;17.23;9.23;;;;;;;4.35;100.00;99542.22;5023106;28;20102;-84
2021/11/03 03:32:10;;;;;;;14.88;9.30;;;;;;;4.33;100.00;99540.50;5007958;28;20045;-85
2021/11/03 03:34:37;;;;;;;15.35;9.07;;;;;;;4.30;100.00;99541.34;5026480;28;20041;-84
2021/11/03 03:37:05;;;;;;;14.95;8.65;;;;;;;4.24;100.00;99534.47;5013009;28;20049;-84
2021/11/03 03:39:32;;;;;;;14.90;9.65;;;;;;;4.20;100.00;99537.03;5040996;28;20060;-85
2021/11/03 03:42:12;;;;;;;14.10;8.35;;;;;;;4.17;100.00;99537.91;5025736;28;20057;-85
2021/11/03 03:44:43;;;;;;;16.25;9.48;;;;;;;4.12;100.00;99531.91;5009304;28;20129;-85
2021/11/03 03:47:15;;;;;;;15.98;9.15;;;;;;;4.08;100.00;99536.22;5030143;28;20539;-85
2021/11/03 03:49:41;;;;;;;15.02;9.60;;;;;;;4.06;100.00;99531.91;5027006;28;20401;-85
2021/11/03 03:52:09;;;;;;;13.27;8.85;;;;;;;4.04;100.00;99531.03;5043538;28;20042;-85
2021/11/03 03:54:36;;;;;;;15.75;9.80;;;;;;;4.03;100.00;99526.69;5021646;28;20061;-85
2021/11/03 03:57:04;;;;;;;17.13;10.65;;;;;;;4.02;100.00;99531.03;5012159;28;21130;-84
2021/11/03 03:59:30;;;;;;;19.08;9.85;;;;;;;4.07;100.00;99528.44;5046008;28;20049;-85
2021/11/03 04:01:57;;;;;;;18.80;9.93;;;;;;;4.08;100.00;99528.44;5007646;28;20083;-85
2021/11/03 04:04:23;;;;;;;14.48;8.38;;;;;;;4.06;100.00;99529.31;5024606;28;20134;-85
2021/11/03 04:06:50;;;;;;;17.02;10.70;;;;;;;4.08;100.00;99531.03;5038477;28;20041;-84
2021/11/03 04:09:17;;;;;;;17.75;9.40;;;;;;;4.05;100.00;99531.00;5023529;28;20109;-85
2021/11/03 04:11:43;;;;;;;15.77;9.38;;;;;;;4.04;100.00;99528.44;5040982;28;20075;-84
2021/11/03 04:14:10;;;;;;;14.15;8.65;;;;;;;4.01;100.00;99525.84;5042720;28;20496;-84
2021/11/03 04:16:37;;;;;;;13.52;9.65;;;;;;;4.00;100.00;99524.97;5025914;28;20051;-85
2021/11/03 04:19:05;;;;;;;17.25;10.20;;;;;;;4.00;100.00;99522.38;5026833;28;20112;-84
2021/11/03 04:21:33;;;;;;;20.83;10.48;;;;;;;4.00;100.00;99514.63;5012723;28;20561;-84
2021/11/03 04:24:00;;;;;;;17.80;9.55;;;;;;;4.00;100.00;99509.44;5009014;28;20072;-84
2021/11/03 04:26:32;;;;;;;15.90;9.73;;;;;;;3.97;100.00;99507.72;5023477;28;20050;-85
2021/11/03 04:28:59;;;;;;;17.05;9.07;;;;;;;3.96;100.00;99507.72;5010693;28;20487;-84
2021/11/03 04:31:25;;;;;;;17.88;10.02;;;;;;;3.95;100.00;99508.56;5011309;28;20507;-84
2021/11/03 04:33:53;;;;;;;16.10;9.55;;;;;;;3.93;100.00;99513.75;5022952;28;20045;-84
2021/11/03 04:36:23;;;;;;;13.90;9.18;;;;;;;3.89;100.00;99509.44;5022458;28;20050;-84
2021/11/03 04:38:53;;;;;;;15.23;9.55;;;;;;;3.89;100.00;99509.44;5040193;28;20057;-85
2021/11/03 04:41:22;;;;;;;15.60;9.32;;;;;;;3.85;100.00;99505.13;5024729;28;20045;-85
2021/11/03 04:43:48;;;;;;;18.17;10.93;;;;;;;3.85;100.00;99501.69;5026953;28;20056;-85
2021/11/03 04:46:17;;;;;;;19.00;10.25;;;;;;;3.86;100.00;99495.63;5022044;28;21281;-85
2021/11/03 04:48:45;;;;;;;16.77;10.65;;;;;;;3.85;100.00;99499.13;5010544;28;20049;-85
2021/11/03 04:51:12;;;;;;;21.20;10.98;;;;;;;3.84;100.00;99503.41;5031442;28;20528;-85
2021/11/03 04:53:39;;;;;;;17.70;10.82;;;;;;;3.82;100.00;99502.56;5026825;28;20057;-85
2021/11/03 04:56:07;;;;;;;16.38;9.50;;;;;;;3.82;100.00;99507.75;5025337;28;20398;-85
2021/11/03 04:58:34;;;;;;;19.35;11.35;;;;;;;3.81;100.00;99508.59;5012030;28;20045;-84
2021/11/03 05:01:01;;;;;;;18.27;10.93;;;;;;;3.80;100.00;99514.63;5026323;28;20072;-84
2021/11/03 05:03:29;;;;;;;19.20;10.23;;;;;;;3.79;100.00;99526.72;5008160;28;20516;-85
2021/11/03 05:05:58;;;;;;;17.80;11.05;;;;;;;3.80;100.00;99528.44;5008955;28;20649;-84
2021/11/03 05:08:25;;;;;;;18.42;11.05;;;;;;;3.80;100.00;99530.16;5008323;28;20053;-84
2021/11/03 05:10:52;;;;;;;19.75;11.35;;;;;;;3.79;100.00;99537.06;5010040;28;20050;-83
2021/11/03 05:13:18;;;;;;;23.90;11.73;;;;;;;3.77;100.00;99536.19;5024024;28;20061;-85
2021/11/03 05:16:05;;;;;;;;;;;;;;;;;;;;;
2021/11/03 05:18:40;;;;;;;23.73;11.57;;;;;;;3.72;100.00;99543.09;5006072;28;20052;-84
2021/11/03 05:21:06;;;;;;;17.60;11.93;;;;;;;3.69;100.00;99543.09;5009856;28;20100;-84
2021/11/03 05:23:33;;;;;;;20.88;11.40;;;;;;;3.69;100.00;99557.75;5021921;28;20054;-84
2021/11/03 05:26:00;;;;;;;20.60;11.95;;;;;;;3.66;100.00;99553.44;5008776;28;20044;-84
2021/11/03 05:28:28;;;;;;;19.25;12.07;;;;;;;3.66;100.00;99561.19;5022782;28;20053;-84
2021/11/03 05:30:54;;;;;;;19.85;10.45;;;;;;;3.66;100.00;99562.94;5023367;28;20037;-85
2021/11/03 05:33:21;;;;;;;22.40;12.70;;;;;;;3.64;100.00;99565.53;5021075;28;20152;-84
2021/11/03 05:35:48;;;;;;;27.05;12.60;;;;;;;3.66;100.00;99568.13;5006667;28;20042;-84
2021/11/03 05:38:15;;;;;;;24.95;12.80;;;;;;;3.65;100.00;99567.25;5005844;28;20056;-84
2021/11/03 05:40:41;;;;;;;20.60;11.95;;;;;;;3.60;100.00;99567.25;5019836;28;20057;-84
2021/11/03 05:43:08;;;;;;;18.88;12.10;;;;;;;3.57;100.00;99571.53;5009249;28;20492;-85
2021/11/03 05:45:35;;;;;;;23.88;13.88;;;;;;;3.54;100.00;99574.13;5024082;28;20907;-84
2021/11/03 05:48:02;;;;;;;25.63;12.95;;;;;;;3.51;100.00;99571.50;5007001;28;20069;-84
2021/11/03 05:50:33;;;;;;;21.40;12.73;;;;;;;3.50;100.00;99570.66;5021262;28;20071;-85
2021/11/03 05:53:00;;;;;;;24.75;13.77;;;;;;;3.50;100.00;99565.50;5026508;28;20042;-84
2021/11/03 05:55:28;;;;;;;28.23;14.30;;;;;;;3.48;100.00;99562.91;5011701;28;20527;-84
2021/11/03 05:57:55;;;;;;;25.13;13.60;;;;;;;3.51;100.00;99556.88;5024088;28;20057;-84
2021/11/03 06:00:32;;;;;;;25.08;12.20;;;;;;;3.54;100.00;99563.78;5037140;28;20056;-83
2021/11/03 06:02:59;;;;;;;27.48;13.68;;;;;;;3.53;100.00;99575.84;5008970;28;20102;-84
2021/11/03 06:05:25;;;;;;;24.95;13.55;;;;;;;3.54;100.00;99585.34;5004148;28;20073;-85
2021/11/03 06:08:01;;;;;;;23.00;14.43;;;;;;;3.53;100.00;99588.78;5024457;28;20055;-84
2021/11/03 06:10:42;;;;;;;23.77;14.18;;;;;;;3.48;100.00;99588.78;5023486;28;20049;-84
2021/11/03 06:13:10;;;;;;;28.30;14.27;;;;;;;3.48;100.00;99585.31;5029550;28;20137;-84
2021/11/03 06:15:39;;;;;;;28.52;16.10;;;;;;;3.49;100.00;99587.03;5021791;28;20045;-85
2021/11/03 06:18:08;;;;;;;30.15;14.85;;;;;;;3.47;100.00;99576.69;5025500;28;20045;-86
2021/11/03 06:20:36;;;;;;;24.83;14.75;;;;;;;3.47;100.00;99584.47;5009751;28;20049;-86
2021/11/03 06:23:02;;;;;;;24.60;14.77;;;;;;;3.49;100.00;99576.69;5010869;28;20100;-86
2021/11/03 06:25:29;;;;;;;21.73;13.40;;;;;;;3.47;100.00;99579.28;5017744;28;20161;-84
2021/11/03 06:27:57;;;;;;;25.67;13.73;;;;;;;3.46;100.00;99587.91;5022387;28;20084;-87
2021/11/03 06:30:30;;;;;;;22.35;11.95;;;;;;;3.46;100.00;99582.72;5050623;28;20037;-86
2021/11/03 06:32:57;;;;;;;22.98;13.90;;;;;;;3.44;100.00;99587.06;5024067;28;20060;-86
2021/11/03 06:35:25;;;;;;;24.30;13.32;;;;;;;3.44;100.00;99592.22;5015280;28;20060;-87
2021/11/03 06:37:52;;;;;;;23.27;13.60;;;;;;;3.42;100.00;99598.25;5030063;28;20447;-86
2021/11/03 06:40:22;;;;;;;23.05;13.00;;;;;;;3.46;100.00;99598.25;5009552;28;20526;-86
2021/11/03 06:42:49;;;;;;;26.85;15.13;;;;;;;3.48;100.00;99595.66;5013017;28;20523;-87
2021/11/03 06:45:18;;;;;;;26.45;13.63;;;;;;;3.51;100.00;99598.28;5038711;28;20025;-87
2021/11/03 06:47:44;;;;;;;27.55;13.80;;;;;;;3.54;100.00;99605.19;5012561;28;20133;-87
2021/11/03 06:50:16;;;;;;;24.55;13.45;;;;;;;3.56;100.00;99603.44;5004134;28;20045;-86
2021/11/03 06:52:47;;;;;;;28.55;14.55;;;;;;;3.58;100.00;99600.00;5031274;28;20129;-86
2021/11/03 06:55:14;;;;;;;23.02;13.32;;;;;;;3.62;100.00;99613.81;5023517;28;20053;-86
2021/11/03 06:57:40;;;;;;;22.98;12.80;;;;;;;3.63;100.00;99615.56;5007630;28;20050;-86
2021/11/03 07:00:13;;;;;;;20.10;12.70;;;;;;;3.66;100.00;99619.88;5021826;28;20408;-86
2021/11/03 07:02:40;;;;;;;22.83;11.30;;;;;;;3.68;100.00;99610.38;5009770;28;20427;-86
2021/11/03 07:05:07;;;;;;;23.33;12.25;;;;;;;3.73;100.00;99613.84;5027343;28;20045;-87
2021/11/03 07:07:34;;;;;;;19.48;11.77;;;;;;;3.78;100.00;99610.41;5027214;28;20815;-86
2021/11/03 07:10:01;;;;;;;21.63;12.60;;;;;;;3.86;100.00;99606.97;5043514;28;20046;-86
2021/11/03 07:12:28;;;;;;;19.52;11.65;;;;;;;3.94;100.00;99624.25;5013061;28;20056;-86
2021/11/03 07:14:54;;;;;;;18.48;12.00;;;;;;;4.01;100.00;99619.94;5028525;28;20523;-84
2021/11/03 07:17:21;;;;;;;22.38;12.55;;;;;;;4.07;100.00;99632.03;5020242;28;20037;-86
2021/11/03 07:19:48;;;;;;;21.30;11.82;;;;;;;4.11;100.00;99633.78;5026736;28;20083;-87
2021/11/03 07:22:17;;;;;;;19.13;11.52;;;;;;;4.11;100.00;99633.78;5030822;28;20049;-86
2021/11/03 07:24:43;;;;;;;18.73;11.57;;;;;;;4.16;100.00;99639.81;5010037;28;20164;-86
2021/11/03 07:27:10;;;;;;;18.92;12.23;;;;;;;4.16;100.00;99644.13;5018465;28;20045;-86
2021/11/03 07:29:42;;;;;;;17.05;11.57;;;;;;;4.19;100.00;99647.59;5028515;28;20049;-86
2021/11/03 07:32:10;;;;;;;17.58;12.40;;;;;;;4.22;100.00;99644.97;5011380;28;20052;-86
2021/11/03 07:34:37;;;;;;;18.52;12.20;;;;;;;4.28;100.00;99652.75;5015311;28;20049;-86
2021/11/03 07:37:06;;;;;;;18.15;11.57;;;;;;;4.32;100.00;99642.41;5030460;28;20104;-86
2021/11/03 07:39:34;;;;;;;14.98;10.23;;;;;;;4.37;100.00;99641.53;5031060;28;20045;-86
2021/11/03 07:42:02;;;;;;;17.27;10.77;;;;;;;4.43;100.00;99646.75;5035032;28;20041;-83
2021/11/03 07:44:28;;;;;;;16.33;10.15;;;;;;;4.51;100.00;99638.06;5021044;28;20124;-87
2021/11/03 07:46:55;;;;;;;16.75;11.50;;;;;;;4.57;100.00;99636.34;5031593;28;20038;-84
2021/11/03 07:49:22;;;;;;;13.82;9.35;;;;;;;4.66;100.00;99643.25;5015757;28;20049;-86
2021/11/03 07:51:49;;;;;;;15.75;11.10;;;;;;;4.75;100.00;99645.84;5030792;28;20420;-85
2021/11/03 07:54:16;;;;;;;16.15;10.77;;;;;;;4.82;100.00;99646.69;5052849;28;20183;-86
2021/11/03 07:56:44;;;;;;;14.45;9.63;;;;;;;4.89;100.00;99650.13;5035247;28;20793;-87
2021/11/03 07:59:15;;;;;;;18.88;10.63;;;;;;;4.97;100.00;99653.59;5031663;28;20049;-86
2021/11/03 08:01:42;;;;;;;20.40;12.77;;;;;;;5.04;100.00;99655.28;5016646;28;20095;-86
2021/11/03 08:04:09;;;;;;;15.95;10.65;;;;;;;5.12;100.00;99655.25;5031528;28;20068;-86
2021/11/03 08:06:37;;;;;;;17.27;9.57;;;;;;;5.21;100.00;99644.00;5033510;28;20041;-86
2021/11/03 08:09:08;;;;;;;16.33;10.15;;;;;;;5.28;100.00;99646.56;5047902;28;20045;-86
2021/11/03 08:11:49;;;;;;;16.20;9.20;;;;;;;5.36;100.00;99648.25;5016131;28;20058;-86
2021/11/03 08:14:18;;;;;;;16.13;10.88;;;;;;;5.45;100.00;99650.84;5032711;28;20049;-86
2021/11/03 08:17:10;;;;;;;17.08;10.38;;;;;;;5.54;100.00;99648.22;5029349;28;20061;-86
2021/11/03 08:19:50;;;;;;;15.50;9.90;;;;;;;5.64;100.00;99643.81;5017705;28;20049;-86
2021/11/03 08:22:20;;;;;;;16.23;9.98;;;;;;;5.75;100.00;99654.13;5018764;28;20412;-87
2021/11/03 08:24:51;;;;;;;17.05;10.07;;;;;;;5.86;100.00;99643.72;5030096;28;20053;-83
2021/11/03 08:27:19;;;;;;;16.05;10.82;;;;;;;5.95;100.00;99647.09;5029963;28;20051;-86
2021/11/03 08:29:46;;;;;;;14.70;9.48;;;;;;;6.03;100.00;99644.47;5010360;28;20413;-86
2021/11/03 08:32:17;;;;;;;18.23;12.18;;;;;;;6.09;100.00;99641.84;5028662;28;20072;-86
2021/11/03 08:34:44;;;;;;;14.52;9.68;;;;;;;6.18;100.00;99640.94;5011839;28;20121;-86
2021/11/03 08:37:16;;;;;;;14.35;9.38;;;;;;;6.25;100.00;99636.53;5031490;28;20088;-86
2021/11/03 08:39:48;;;;;;;14.13;9.77;;;;;;;6.28;100.00;99629.59;5036082;28;20105;-86
2021/11/03 08:42:16;;;;;;;16.58;10.95;;;;;;;6.33;100.00;99639.09;5029901;28;20119;-86
2021/11/03 08:44:42;;;;;;;15.23;9.68;;;;;;;6.36;100.00;99637.34;5017655;28;20603;-85
2021/11/03 08:47:10;;;;;;;16.00;10.15;;;;;;;6.38;100.00;99637.31;5029478;28;20049;-87
2021/11/03 08:49:38;;;;;;;17.77;11.23;;;;;;;6.44;100.00;99634.63;5028838;28;20049;-87
2021/11/03 08:52:06;;;;;;;16.27;9.95;;;;;;;6.49;100.00;99635.47;5028465;28;20575;-86
2021/11/03 08:54:38;;;;;;;15.40;10.38;;;;;;;6.52;100.00;99631.97;5020654;28;20045;-87
2021/11/03 08:57:06;;;;;;;15.25;10.48;;;;;;;6.55;100.00;99631.97;5018190;28;20064;-86
2021/11/03 08:59:32;;;;;;;18.48;10.80;;;;;;;6.55;100.00;99627.63;5046101;28;20377;-87
2021/11/03 09:01:59;;;;;;;14.55;9.35;;;;;;;6.57;100.00;99636.28;5031710;28;20059;-85
2021/11/03 09:04:26;;;;;;;13.48;8.77;;;;;;;6.65;100.00;99632.72;5021818;28;20046;-87
2021/11/03 09:06:52;;;;;;;15.05;11.07;;;;;;;6.67;100.00;99629.25;5031326;28;20095;-87
2021/11/03 09:09:20;;;;;;;13.48;9.80;;;;;;;6.72;100.00;99631.81;5012369;28;20049;-87
2021/11/03 09:11:51;;;;;;;17.20;10.43;;;;;;;6.79;100.00;99626.53;5012435;28;20519;-86
2021/11/03 09:14:21;;;;;;;14.80;9.60;;;;;;;6.86;100.00;99624.72;5024802;28;20112;-87
2021/11/03 09:16:52;;;;;;;15.40;9.98;;;;;;;6.92;100.00;99629.88;5009275;28;20341;-87
2021/11/03 09:19:20;;;;;;;15.77;9.88;;;;;;;7.01;100.00;99618.47;5032037;28;20053;-86
2021/11/03 09:21:46;;;;;;;12.77;8.88;;;;;;;7.10;100.00;99620.13;5013184;28;20048;-87
2021/11/03 09:24:13;;;;;;;14.38;9.73;;;;;;;7.16;99.88;99621.78;5029634;28;20406;-86
2021/11/03 09:26:43;;;;;;;13.85;10.02;;;;;;;7.23;99.19;99626.91;5030264;28;20072;-87
2021/11/03 09:29:10;;;;;;;14.75;9.75;;;;;;;7.25;98.66;99627.75;5032755;28;20045;-87
2021/11/03 09:31:40;;;;;;;12.55;9.60;;;;;;;7.29;98.05;99629.44;5014423;28;20417;-86
2021/11/03 09:34:08;;;;;;;15.48;10.35;;;;;;;7.41;97.50;99625.81;5026153;28;20135;-85
2021/11/03 09:36:41;;;;;;;11.98;8.95;;;;;;;7.55;97.68;99630.88;5017605;28;20053;-86
2021/11/03 09:39:08;;;;;;;14.25;9.77;;;;;;;7.62;95.24;99634.25;5018264;28;20049;-86
2021/11/03 09:41:51;;;;;;;13.23;8.77;;;;;;;7.73;95.72;99634.09;5014566;28;20042;-86
2021/11/03 09:44:32;;;;;;;15.13;10.48;;;;;;;7.76;94.12;99631.47;5016083;28;20045;-87
2021/11/03 09:47:28;;;;;;;13.38;9.07;;;;;;;7.87;95.39;99632.16;5012146;28;20049;-86
2021/11/03 09:50:01;;;;;;;14.23;9.25;;;;;;;8.03;94.15;99627.59;5034125;28;20053;-84
2021/11/03 09:52:38;;;;;;;14.25;9.15;;;;;;;8.12;93.25;99639.63;5035202;28;20052;-85
2021/11/03 09:55:14;;;;;;;13.65;9.73;;;;;;;8.16;92.82;99632.63;5020711;28;20045;-84
2021/11/03 09:57:56;;;;;;;14.52;9.52;;;;;;;8.19;93.28;99635.19;5034098;28;20049;-86
2021/11/03 10:00:44;;;;;;;12.15;8.48;;;;;;;8.20;93.13;99626.47;5048473;28;20123;-86
2021/11/03 10:03:58;;;;;;;14.13;9.35;;;;;;;8.23;92.81;99629.03;5013699;28;20408;-85
2021/11/03 10:06:31;;;;;;;12.02;8.75;;;;;;;8.22;92.21;99628.16;5027808;28;20050;-85
2021/11/03 10:08:58;;;;;;;13.02;9.48;;;;;;;8.24;92.70;99622.94;5032610;28;20058;-85
2021/11/03 10:11:35;;;;;;;13.35;9.30;;;;;;;8.30;92.57;99619.38;5032968;28;20061;-84
2021/11/03 10:14:02;;;;;;;14.57;9.18;;;;;;;8.37;91.82;99621.84;5038396;28;20061;-86
2021/11/03 10:16:43;;;;;;;9.60;8.25;;;;;;;8.44;91.75;99625.22;5029000;28;20050;-84
2021/11/03 10:19:10;;;;;;;11.27;8.57;;;;;;;8.55;91.71;99623.31;5018131;28;20077;-85
2021/11/03 10:22:19;;;;;;;10.63;8.52;;;;;;;8.73;90.66;99618.66;5033169;28;20083;-85
2021/11/03 10:25:02;;;;;;;13.80;9.63;;;;;;;8.90;89.64;99610.53;5012847;28;20049;-84
2021/11/03 10:27:29;;;;;;;13.60;8.63;;;;;;;9.04;88.97;99618.09;5011096;28;20379;-86
2021/11/03 10:30:21;;;;;;;10.57;8.80;;;;;;;9.14;88.15;99614.41;5032569;28;20463;-87
2021/11/03 10:32:47;;;;;;;16.48;9.48;;;;;;;9.23;88.39;99605.50;5037020;28;20060;-87
2021/11/03 10:35:39;;;;;;;10.68;9.00;;;;;;;9.26;86.76;99608.09;5026121;28;20073;-86
2021/11/03 10:38:16;;;;;;;15.93;9.57;;;;;;;9.21;87.00;99602.94;5007923;28;20101;-86
2021/11/03 10:41:17;;;;;;;11.85;9.27;;;;;;;9.16;86.08;99606.53;5014661;28;20056;-86
2021/11/03 10:43:44;;;;;;;14.43;9.43;;;;;;;9.17;86.96;99600.44;5030723;28;20049;-86
2021/11/03 10:46:29;;;;;;;11.48;9.10;;;;;;;9.17;86.94;99603.06;5012203;28;20389;-87
2021/11/03 10:49:31;;;;;;;10.15;8.05;;;;;;;9.24;87.01;99602.91;5015696;28;20432;-85
2021/11/03 10:52:17;;;;;;;10.85;8.23;;;;;;;9.40;86.15;99607.81;5010129;28;20100;-86
2021/11/03 10:55:25;;;;;;;13.23;7.93;;;;;;;9.45;86.01;99598.09;5029046;28;20052;-85
2021/11/03 10:58:10;;;;;;;11.45;8.25;;;;;;;9.50;85.64;99600.63;5028858;28;20037;-86
2021/11/03 11:00:44;;;;;;;13.63;8.65;;;;;;;9.47;85.95;99593.72;5028327;28;20105;-84
2021/11/03 11:03:19;;;;;;;10.95;8.30;;;;;;;9.46;85.64;99591.13;5047654;28;20046;-86
2021/11/03 11:05:54;;;;;;;13.70;8.80;;;;;;;9.41;85.13;99602.53;5027885;28;20046;-85
2021/11/03 11:08:29;;;;;;;10.40;7.70;;;;;;;9.37;85.46;99595.69;5020635;28;20053;-85
2021/11/03 11:11:06;;;;;;;9.32;7.03;;;;;;;9.32;85.23;99594.91;5014238;28;20056;-87
2021/11/03 11:13:40;;;;;;;11.05;8.57;;;;;;;9.25;84.36;99593.31;5032332;28;20053;-85
2021/11/03 11:16:16;;;;;;;10.32;8.90;;;;;;;9.25;85.44;99598.53;5026065;28;20060;-86
2021/11/03 11:19:19;;;;;;;9.65;8.45;;;;;;;9.37;84.38;99585.22;5030906;28;20100;-85
2021/11/03 11:22:00;;;;;;;12.10;8.52;;;;;;;9.48;84.35;99592.81;5031604;28;20057;-84
2021/11/03 11:24:58;;;;;;;14.00;8.90;;;;;;;9.54;84.13;99591.81;5045991;28;20073;-87
2021/11/03 11:28:12;;;;;;;14.73;9.75;;;;;;;9.56;83.52;99590.03;5033801;28;20172;-85
2021/11/03 11:31:16;;;;;;;12.67;11.20;;;;;;;9.66;83.01;99588.06;5008634;28;20136;-86
2021/11/03 11:34:48;;;;;;;14.30;10.35;;;;;;;9.64;82.04;99587.28;5004282;28;20060;-86
2021/11/03 11:37:48;;;;;;;12.88;9.52;;;;;;;9.65;82.25;99587.22;5010958;28;20292;-86
2021/11/03 11:40:42;;;;;;;12.63;9.10;;;;;;;9.70;81.58;99581.88;5026944;28;20045;-86
2021/11/03 11:43:38;;;;;;;20.02;10.48;;;;;;;9.76;80.30;99582.63;5030303;28;20045;-86
2021/11/03 11:46:20;;;;;;;10.50;8.90;;;;;;;9.70;80.90;99585.38;5029109;28;20516;-84
2021/11/03 11:49:20;;;;;;;9.95;8.65;;;;;;;9.73;81.60;99587.06;5034515;28;20073;-87